Cape Express — HO5337 — position and weather

sailwx.info

Track history (hours):
 
Tides and Currents Weather Stations Pressure Air Temp Water Temp Dewpoint Dewpoint Depression Visibility Wind Speed Wind Dir Waves Ship Positions

Cape Express

Last reported at 2015-Jan-29 23:33 UTC. Time now 2015-Jan-31 14:45 UTC.
Position N 26°33' W 079°42'.

Length 29 m; draft 2.2 m.

Type: Cargo ship. MMSI: 370269000.

Date/timePositionNaut miles runAvg speedWind from/ knotsBaromVisibWave heightAir tempDewpointWater temp
2015-Jan-29 23:33N 26°33' W 079°42'1111.0
2015-Jan-29 22:33N 26°25' W 079°50'1111.3
2015-Jan-29 21:33N 26°15' W 079°56'1111.1
2015-Jan-29 20:33N 26°06' W 080°04'4 4.5
2015-Jan-29 19:33N 26°04' W 080°08'0 0.1
2015-Jan-29 18:33N 26°04' W 080°08'0 0.0
2015-Jan-29 17:33N 26°04' W 080°08'0 0.0
2015-Jan-29 16:33N 26°04' W 080°08'0 0.0
2015-Jan-29 15:33N 26°04' W 080°08'0 0.1
2015-Jan-29 14:33N 26°04' W 080°08'0 0.0
2015-Jan-29 13:33N 26°04' W 080°08'1 1.0
2015-Jan-29 12:33N 26°04' W 080°07'4 3.9
2015-Jan-29 11:33N 26°05' W 080°03'8 8.2
2015-Jan-29 10:33N 26°03' W 079°54'9 8.6
2015-Jan-29 09:33N 26°00' W 079°44'9 8.5
2015-Jan-29 08:33N 25°57' W 079°36'  
2015-Jan-24 01:33N 25°56' W 079°29'9 8.3
2015-Jan-24 00:30N 25°57' W 079°39'7 6.9
2015-Jan-23 23:33N 26°00' W 079°45'8 7.9
2015-Jan-23 22:33N 26°02' W 079°53'9 8.5
2015-Jan-23 21:33N 26°04' W 080°03'4 4.3
2015-Jan-23 20:33N 26°05' W 080°07'0 0.0
2015-Jan-23 19:33N 26°05' W 080°07'0 0.0
2015-Jan-23 18:33N 26°05' W 080°07'2 1.7
2015-Jan-23 17:33N 26°04' W 080°07'0 0.4
2015-Jan-23 16:33N 26°04' W 080°08'0 0.0
2015-Jan-23 15:33N 26°04' W 080°08'0 0.0
2015-Jan-23 14:33N 26°04' W 080°08'0 0.0
2015-Jan-23 13:33N 26°04' W 080°08'0 0.0
2015-Jan-23 12:33N 26°04' W 080°08'0 0.0
2015-Jan-23 11:33N 26°04' W 080°08'0 0.0
2015-Jan-23 10:33N 26°04' W 080°08'0 0.0
2015-Jan-23 09:33N 26°04' W 080°08'0 0.0
2015-Jan-23 08:33N 26°04' W 080°08'0 0.0
2015-Jan-23 07:33N 26°04' W 080°08'0 0.0
2015-Jan-23 06:33N 26°04' W 080°08'0 0.0
2015-Jan-23 05:33N 26°04' W 080°08'0 0.0
2015-Jan-23 04:33N 26°04' W 080°08'0 0.0
2015-Jan-23 03:33N 26°04' W 080°08'0 0.0
2015-Jan-23 02:33N 26°04' W 080°08'0 0.0
2015-Jan-23 01:33N 26°04' W 080°08'0 0.0
2015-Jan-23 00:33N 26°04' W 080°08'0 0.1
2015-Jan-22 23:33N 26°04' W 080°08'4 4.2
2015-Jan-22 22:33N 26°05' W 080°04'9 9.2
2015-Jan-22 21:33N 26°02' W 079°54'9 9.3
2015-Jan-22 20:33N 25°60' W 079°44'10 9.8
2015-Jan-22 19:33N 25°56' W 079°34'  
Track history (hours):
 
Tides and Currents Weather Stations Pressure Air Temp Water Temp Dewpoint Dewpoint Depression Visibility Wind Speed Wind Dir Waves Ship Positions

Cape Express

Last reported at 2015-Jan-29 23:33 UTC. Time now 2015-Jan-31 14:45 UTC.
Position N 26°33' W 079°42'.

Length 29 m; draft 2.2 m.

Type: Cargo ship. MMSI: 370269000.

Date/timePositionNaut miles runAvg speedWind from/ knotsBaromVisibWave heightAir tempDewpointWater temp
2015-Jan-29 23:33N 26°33' W 079°42'1111.0
2015-Jan-29 22:33N 26°25' W 079°50'1111.3
2015-Jan-29 21:33N 26°15' W 079°56'1111.1
2015-Jan-29 20:33N 26°06' W 080°04'4 4.5
2015-Jan-29 19:33N 26°04' W 080°08'0 0.1
2015-Jan-29 18:33N 26°04' W 080°08'0 0.0
2015-Jan-29 17:33N 26°04' W 080°08'0 0.0
2015-Jan-29 16:33N 26°04' W 080°08'0 0.0
2015-Jan-29 15:33N 26°04' W 080°08'0 0.1
2015-Jan-29 14:33N 26°04' W 080°08'0 0.0
2015-Jan-29 13:33N 26°04' W 080°08'1 1.0
2015-Jan-29 12:33N 26°04' W 080°07'4 3.9
2015-Jan-29 11:33N 26°05' W 080°03'8 8.2
2015-Jan-29 10:33N 26°03' W 079°54'9 8.6
2015-Jan-29 09:33N 26°00' W 079°44'9 8.5
2015-Jan-29 08:33N 25°57' W 079°36'  
2015-Jan-24 01:33N 25°56' W 079°29'9 8.3
2015-Jan-24 00:30N 25°57' W 079°39'7 6.9
2015-Jan-23 23:33N 26°00' W 079°45'8 7.9
2015-Jan-23 22:33N 26°02' W 079°53'9 8.5
2015-Jan-23 21:33N 26°04' W 080°03'4 4.3
2015-Jan-23 20:33N 26°05' W 080°07'0 0.0
2015-Jan-23 19:33N 26°05' W 080°07'0 0.0
2015-Jan-23 18:33N 26°05' W 080°07'2 1.7
2015-Jan-23 17:33N 26°04' W 080°07'0 0.4
2015-Jan-23 16:33N 26°04' W 080°08'0 0.0
2015-Jan-23 15:33N 26°04' W 080°08'0 0.0
2015-Jan-23 14:33N 26°04' W 080°08'0 0.0
2015-Jan-23 13:33N 26°04' W 080°08'0 0.0
2015-Jan-23 12:33N 26°04' W 080°08'0 0.0
2015-Jan-23 11:33N 26°04' W 080°08'0 0.0
2015-Jan-23 10:33N 26°04' W 080°08'0 0.0
2015-Jan-23 09:33N 26°04' W 080°08'0 0.0
2015-Jan-23 08:33N 26°04' W 080°08'0 0.0
2015-Jan-23 07:33N 26°04' W 080°08'0 0.0
2015-Jan-23 06:33N 26°04' W 080°08'0 0.0
2015-Jan-23 05:33N 26°04' W 080°08'0 0.0
2015-Jan-23 04:33N 26°04' W 080°08'0 0.0
2015-Jan-23 03:33N 26°04' W 080°08'0 0.0
2015-Jan-23 02:33N 26°04' W 080°08'0 0.0
2015-Jan-23 01:33N 26°04' W 080°08'0 0.0
2015-Jan-23 00:33N 26°04' W 080°08'0 0.1
2015-Jan-22 23:33N 26°04' W 080°08'4 4.2
2015-Jan-22 22:33N 26°05' W 080°04'9 9.2
2015-Jan-22 21:33N 26°02' W 079°54'9 9.3
2015-Jan-22 20:33N 25°60' W 079°44'10 9.8
2015-Jan-22 19:33N 25°56' W 079°34'  

Dump ship's entire track history